createdAt,value
2018-03-03T00:01:24.376Z,91.80
2018-03-03T00:03:57.035Z,91.80
2018-03-03T00:06:30.690Z,92.00
2018-03-03T00:09:02.582Z,92.00
2018-03-03T00:11:34.461Z,92.00
2018-03-03T00:14:06.351Z,91.90
2018-03-03T00:16:38.231Z,91.90
2018-03-03T00:19:10.216Z,91.90
2018-03-03T00:21:42.102Z,92.00
2018-03-03T00:24:14.074Z,92.10
2018-03-03T00:26:46.723Z,92.00
2018-03-03T00:29:18.620Z,92.00
2018-03-03T00:31:51.263Z,92.30
2018-03-03T00:34:23.220Z,92.00
2018-03-03T00:36:55.178Z,91.90
2018-03-03T00:39:27.152Z,92.00
2018-03-03T00:41:59.099Z,92.00
2018-03-03T00:44:31.071Z,92.10
2018-03-03T00:47:02.952Z,92.20
2018-03-03T00:49:34.843Z,92.20
2018-03-03T00:52:06.746Z,92.30
2018-03-03T00:54:38.635Z,92.30
2018-03-03T00:57:10.520Z,92.20
2018-03-03T00:59:42.411Z,92.10
2018-03-03T01:02:14.398Z,92.10
2018-03-03T01:04:46.359Z,92.20
2018-03-03T01:07:18.315Z,92.10
2018-03-03T01:09:50.280Z,92.10
2018-03-03T01:12:22.161Z,92.20
2018-03-03T01:14:54.121Z,92.20
2018-03-03T01:17:26.054Z,92.30
2018-03-03T01:19:57.952Z,92.40
2018-03-03T01:22:30.595Z,92.30
2018-03-03T01:25:02.487Z,92.30
2018-03-03T01:27:35.236Z,92.20
2018-03-03T01:30:07.360Z,92.20
2018-03-03T01:32:39.242Z,92.30
2018-03-03T01:35:11.223Z,92.40
2018-03-03T01:37:43.192Z,92.40
2018-03-03T01:40:15.079Z,92.20
2018-03-03T01:42:47.718Z,92.20
2018-03-03T01:45:19.848Z,92.20
2018-03-03T01:47:51.729Z,92.20
2018-03-03T01:50:23.710Z,92.10
2018-03-03T01:52:55.596Z,92.00
2018-03-03T01:55:27.487Z,92.10
2018-03-03T01:57:59.660Z,92.10
2018-03-03T02:00:31.659Z,92.10
2018-03-03T02:03:03.539Z,92.10
2018-03-03T02:05:35.431Z,92.30
2018-03-03T02:08:08.168Z,92.40
2018-03-03T02:10:40.064Z,92.40
2018-03-03T02:13:13.064Z,92.50
2018-03-03T02:15:44.963Z,92.50
2018-03-03T02:18:16.931Z,92.40
2018-03-03T02:20:49.181Z,92.50
2018-03-03T02:23:21.123Z,92.50
2018-03-03T02:25:53.284Z,92.30
2018-03-03T02:28:25.182Z,92.30
2018-03-03T02:30:57.079Z,92.20
2018-03-03T02:33:29.003Z,92.30
2018-03-03T02:36:00.973Z,92.30
2018-03-03T02:38:32.927Z,92.40
2018-03-03T02:41:05.056Z,92.20
2018-03-03T02:43:36.955Z,92.20
2018-03-03T02:46:08.923Z,92.00
2018-03-03T02:48:41.146Z,92.00
2018-03-03T02:51:13.041Z,91.90
2018-03-03T02:53:46.752Z,91.50
2018-03-03T02:56:18.648Z,91.80
2018-03-03T02:58:51.388Z,91.90
2018-03-03T03:01:23.356Z,91.90
2018-03-03T03:03:55.231Z,91.90
2018-03-03T03:06:27.125Z,91.80
2018-03-03T03:08:59.019Z,91.70
2018-03-03T03:11:31.155Z,91.60
2018-03-03T03:14:03.037Z,91.50
2018-03-03T03:16:34.948Z,91.60
2018-03-03T03:19:06.824Z,91.60
2018-03-03T03:21:39.719Z,91.60
2018-03-03T03:24:11.887Z,91.60
2018-03-03T03:26:43.791Z,91.70
2018-03-03T03:29:15.667Z,91.40
2018-03-03T03:31:47.572Z,91.30
2018-03-03T03:34:19.456Z,91.10
2018-03-03T03:36:51.338Z,91.10
2018-03-03T03:39:23.220Z,91.10
2018-03-03T03:41:55.418Z,91.10
2018-03-03T03:44:27.295Z,91.00
2018-03-03T03:46:59.180Z,90.90
2018-03-03T03:49:31.056Z,91.00
2018-03-03T03:52:02.943Z,90.80
2018-03-03T03:54:35.583Z,90.90
2018-03-03T03:57:07.483Z,90.90
2018-03-03T03:59:40.376Z,90.90
2018-03-03T04:02:12.271Z,90.80
2018-03-03T04:04:44.155Z,90.80
2018-03-03T04:07:16.363Z,90.70
2018-03-03T04:09:48.246Z,90.60
2018-03-03T04:12:20.398Z,90.70
2018-03-03T04:14:52.292Z,90.80
2018-03-03T04:17:24.185Z,90.70
2018-03-03T04:19:56.056Z,90.60
2018-03-03T04:22:28.707Z,90.80
2018-03-03T04:25:00.587Z,90.80
2018-03-03T04:27:33.247Z,90.80
2018-03-03T04:30:05.142Z,90.80
2018-03-03T04:32:37.791Z,90.70
2018-03-03T04:35:09.702Z,90.70
2018-03-03T04:37:42.331Z,90.70
2018-03-03T04:40:14.223Z,90.70
2018-03-03T04:42:46.107Z,90.60
2018-03-03T04:45:18.248Z,90.80
2018-03-03T04:47:50.136Z,90.70
2018-03-03T04:50:22.016Z,90.50
2018-03-03T04:52:53.909Z,90.80
2018-03-03T04:55:26.552Z,90.40
2018-03-03T04:57:58.447Z,90.40
2018-03-03T05:00:31.095Z,90.40
2018-03-03T05:03:03.211Z,90.40
2018-03-03T05:05:35.091Z,90.40
2018-03-03T05:08:06.978Z,90.30
2018-03-03T05:10:38.859Z,90.30
2018-03-03T05:13:11.528Z,90.30
2018-03-03T05:15:43.409Z,90.30
2018-03-03T05:18:16.311Z,90.50
2018-03-03T05:20:48.196Z,90.30
2018-03-03T05:23:20.088Z,90.20
2018-03-03T05:25:51.962Z,90.10
2018-03-03T05:28:24.222Z,90.10
2018-03-03T05:30:56.327Z,90.10
2018-03-03T05:33:28.212Z,90.10
2018-03-03T05:36:00.087Z,90.10
2018-03-03T05:38:31.983Z,90.10
2018-03-03T05:41:04.628Z,89.90
2018-03-03T05:43:36.519Z,89.90
2018-03-03T05:46:09.162Z,90.00
2018-03-03T05:48:41.056Z,89.90
2018-03-03T05:51:12.931Z,90.00
2018-03-03T05:53:45.591Z,89.90
2018-03-03T05:56:17.476Z,89.90
2018-03-03T05:58:50.127Z,90.00
2018-03-03T06:01:21.999Z,90.00
2018-03-03T06:03:54.900Z,90.00
2018-03-03T06:06:26.775Z,90.00
2018-03-03T06:08:58.672Z,90.00
2018-03-03T06:11:30.547Z,90.30
2018-03-03T06:14:02.446Z,90.00
2018-03-03T06:16:34.327Z,89.90
2018-03-03T06:19:06.214Z,90.00
2018-03-03T06:21:38.097Z,89.70
2018-03-03T06:24:09.980Z,89.50
2018-03-03T06:26:41.851Z,89.70
2018-03-03T06:29:13.744Z,89.50
2018-03-03T06:31:45.867Z,89.00
2018-03-03T06:34:17.760Z,89.00
2018-03-03T06:36:49.636Z,89.00
2018-03-03T06:39:22.304Z,89.40
2018-03-03T06:41:54.200Z,89.40
2018-03-03T06:44:27.107Z,89.10
2018-03-03T06:46:58.990Z,88.50
2018-03-03T06:49:30.875Z,89.40
2018-03-03T06:52:02.760Z,88.60
2018-03-03T06:54:34.654Z,88.40
2018-03-03T06:57:06.531Z,88.10
2018-03-03T06:59:38.419Z,88.30
2018-03-03T07:02:10.315Z,87.70
2018-03-03T07:04:42.962Z,87.50
2018-03-03T07:07:14.844Z,87.40
2018-03-03T07:09:47.507Z,87.50
2018-03-03T07:12:20.081Z,87.50
2018-03-03T07:14:52.286Z,86.70
2018-03-03T07:17:24.167Z,86.70
2018-03-03T07:19:56.060Z,86.20
2018-03-03T07:22:28.007Z,86.80
2018-03-03T07:25:00.627Z,86.40
2018-03-03T07:27:33.531Z,86.70
2018-03-03T07:30:05.423Z,86.20
2018-03-03T07:32:37.558Z,86.00
2018-03-03T07:35:09.447Z,86.30
2018-03-03T07:37:41.340Z,85.90
2018-03-03T07:40:13.226Z,86.30
2018-03-03T07:42:45.872Z,86.20
2018-03-03T07:45:17.771Z,86.10
2018-03-03T07:47:50.412Z,86.20
2018-03-03T07:50:22.312Z,86.20
2018-03-03T07:52:54.186Z,86.40
2018-03-03T07:55:26.079Z,86.80
2018-03-03T07:57:58.201Z,86.10
2018-03-03T08:00:30.091Z,85.80
2018-03-03T08:03:02.059Z,85.60
2018-03-03T08:05:34.023Z,85.70
2018-03-03T08:08:06.007Z,85.70
2018-03-03T08:10:38.008Z,85.70
2018-03-03T08:13:10.735Z,84.60
2018-03-03T08:15:42.662Z,84.60
2018-03-03T08:18:14.539Z,83.90
2018-03-03T08:20:46.427Z,83.70
2018-03-03T08:23:18.375Z,84.30
2018-03-03T08:25:50.266Z,83.80
2018-03-03T08:28:23.011Z,83.20
2018-03-03T08:30:54.912Z,83.20
2018-03-03T08:33:27.552Z,82.90
2018-03-03T08:35:59.452Z,82.80
2018-03-03T08:38:32.090Z,82.60
2018-03-03T08:41:03.989Z,82.60
2018-03-03T08:43:36.631Z,81.40
2018-03-03T08:46:08.534Z,81.30
2018-03-03T08:48:41.171Z,81.00
2018-03-03T08:51:13.070Z,80.30
2018-03-03T08:53:45.717Z,79.20
2018-03-03T08:56:17.598Z,79.20
2018-03-03T08:58:50.503Z,78.60
2018-03-03T09:01:22.414Z,78.60
2018-03-03T09:03:54.286Z,78.30
2018-03-03T09:06:26.180Z,79.10
2018-03-03T09:08:58.811Z,79.20
2018-03-03T09:11:30.715Z,79.20
2018-03-03T09:14:03.347Z,78.80
2018-03-03T09:16:35.234Z,78.70
2018-03-03T09:19:07.117Z,78.50
2018-03-03T09:21:39.767Z,77.70
2018-03-03T09:24:11.640Z,77.70
2018-03-03T09:26:44.302Z,78.00
2018-03-03T09:29:16.196Z,78.00
2018-03-03T09:31:48.079Z,78.60
2018-03-03T09:34:19.950Z,77.90
2018-03-03T09:36:52.620Z,78.60
2018-03-03T09:39:24.496Z,78.60
2018-03-03T09:41:56.388Z,78.50
2018-03-03T09:44:28.580Z,77.50
2018-03-03T09:47:00.471Z,78.00
2018-03-03T09:49:32.343Z,77.60
2018-03-03T09:52:04.571Z,77.70
2018-03-03T09:54:36.735Z,77.70
2018-03-03T09:57:08.628Z,77.80
2018-03-03T09:59:40.494Z,77.60
2018-03-03T10:02:12.387Z,77.50
2018-03-03T10:04:44.264Z,77.60
2018-03-03T10:07:16.916Z,79.70
2018-03-03T10:09:49.019Z,79.60
2018-03-03T10:12:20.912Z,79.70
2018-03-03T10:14:52.783Z,80.20
2018-03-03T10:17:24.667Z,80.70
2018-03-03T10:19:56.538Z,81.10
2018-03-03T10:22:29.187Z,80.20
2018-03-03T10:25:01.307Z,80.20
2018-03-03T10:27:33.203Z,80.80
2018-03-03T10:30:05.075Z,80.20
2018-03-03T10:32:37.022Z,80.70
2018-03-03T10:35:08.903Z,81.20
2018-03-03T10:37:40.790Z,81.20
2018-03-03T10:40:13.690Z,80.80
2018-03-03T10:42:45.579Z,80.80
2018-03-03T10:45:17.454Z,81.10
2018-03-03T10:47:49.393Z,80.20
2018-03-03T10:50:21.267Z,80.00
2018-03-03T10:52:53.154Z,80.30
2018-03-03T10:55:25.047Z,80.10
2018-03-03T10:57:56.942Z,80.20
2018-03-03T11:00:28.815Z,80.10
2018-03-03T11:03:00.931Z,79.60
2018-03-03T11:05:32.809Z,80.00
2018-03-03T11:08:04.960Z,79.80
2018-03-03T11:10:36.828Z,80.20
2018-03-03T11:13:08.707Z,80.40
2018-03-03T11:15:40.583Z,80.10
2018-03-03T11:18:12.808Z,80.10
2018-03-03T11:20:44.706Z,80.30
2018-03-03T11:23:16.671Z,80.30
2018-03-03T11:25:48.552Z,80.20
2018-03-03T11:28:20.515Z,80.00
2018-03-03T11:30:52.383Z,80.00
2018-03-03T11:33:24.327Z,80.60
2018-03-03T11:35:56.275Z,80.00
2018-03-03T11:38:28.163Z,79.80
2018-03-03T11:41:00.359Z,79.80
2018-03-03T11:43:32.266Z,79.70
2018-03-03T11:46:04.136Z,79.80
2018-03-03T11:48:36.083Z,79.20
2018-03-03T11:51:08.210Z,78.80
2018-03-03T11:53:40.371Z,79.20
2018-03-03T11:56:12.284Z,79.20
2018-03-03T11:58:44.244Z,79.50
2018-03-03T12:01:16.115Z,79.40
2018-03-03T12:03:48.324Z,80.00
2018-03-03T12:06:20.228Z,79.50
2018-03-03T12:08:52.115Z,80.00
2018-03-03T12:11:24.049Z,80.10
2018-03-03T12:13:56.279Z,80.50
2018-03-03T12:16:28.155Z,79.60
2018-03-03T12:19:00.136Z,79.50
2018-03-03T12:21:32.107Z,78.90
2018-03-03T12:24:04.069Z,79.10
2018-03-03T12:26:35.940Z,79.30
2018-03-03T12:29:07.837Z,79.20
2018-03-03T12:31:39.708Z,79.50
2018-03-03T12:34:11.587Z,79.10
2018-03-03T12:36:43.464Z,79.20
2018-03-03T12:39:15.338Z,79.70
2018-03-03T12:41:47.447Z,79.60
2018-03-03T12:44:19.327Z,80.00
2018-03-03T12:46:51.468Z,79.30
2018-03-03T12:49:23.354Z,79.10
2018-03-03T12:51:55.231Z,78.40
2018-03-03T12:54:27.115Z,78.90
2018-03-03T12:56:58.984Z,78.80
2018-03-03T12:59:30.887Z,78.90
2018-03-03T13:02:02.762Z,79.00
2018-03-03T13:04:34.656Z,78.50
2018-03-03T13:07:06.858Z,78.80
2018-03-03T13:09:38.740Z,78.60
2018-03-03T13:12:10.883Z,78.50
2018-03-03T13:14:43.049Z,78.00
2018-03-03T13:17:14.935Z,78.20
2018-03-03T13:19:46.832Z,78.40
2018-03-03T13:22:18.702Z,78.30
2018-03-03T13:24:50.592Z,78.60
2018-03-03T13:27:22.467Z,78.80
2018-03-03T13:29:54.378Z,78.80
2018-03-03T13:32:26.252Z,79.70
2018-03-03T13:34:58.904Z,77.70
2018-03-03T13:37:30.775Z,77.60
2018-03-03T13:40:02.974Z,77.70
2018-03-03T13:42:34.840Z,77.60
2018-03-03T13:45:06.727Z,77.00
2018-03-03T13:47:38.619Z,77.60
2018-03-03T13:50:10.516Z,77.70
2018-03-03T13:52:42.391Z,77.50
2018-03-03T13:55:14.304Z,78.30
2018-03-03T13:57:46.184Z,77.40
2018-03-03T14:00:18.843Z,77.70
2018-03-03T14:02:50.724Z,77.70
2018-03-03T14:05:23.475Z,77.20
2018-03-03T14:07:55.348Z,77.10
2018-03-03T14:10:27.543Z,76.60
2018-03-03T14:12:59.452Z,77.00
2018-03-03T14:15:31.339Z,77.20
2018-03-03T14:18:03.970Z,77.00
2018-03-03T14:20:36.658Z,77.20
2018-03-03T14:23:08.628Z,77.20
2018-03-03T14:25:40.510Z,76.90
2018-03-03T14:28:13.151Z,76.60
2018-03-03T14:30:45.382Z,76.60
2018-03-03T14:33:17.255Z,76.60
2018-03-03T14:35:49.147Z,77.20
2018-03-03T14:38:21.107Z,77.30
2018-03-03T14:40:52.996Z,77.50
2018-03-03T14:43:25.091Z,77.40
2018-03-03T14:45:57.255Z,78.00
2018-03-03T14:48:29.123Z,77.50
2018-03-03T14:51:01.023Z,77.50
2018-03-03T14:53:32.988Z,78.20
2018-03-03T14:56:04.871Z,79.40
2018-03-03T14:58:36.806Z,78.50
2018-03-03T15:01:08.683Z,78.30
2018-03-03T15:03:41.328Z,78.50
2018-03-03T15:06:13.331Z,78.60
2018-03-03T15:08:45.263Z,78.90
2018-03-03T15:11:17.195Z,79.50
2018-03-03T15:13:49.083Z,79.00
2018-03-03T15:16:21.046Z,78.90
2018-03-03T15:18:53.011Z,79.20
2018-03-03T15:21:24.891Z,79.90
2018-03-03T15:23:56.763Z,80.00
2018-03-03T15:26:29.511Z,80.20
2018-03-03T15:29:01.738Z,80.20
2018-03-03T15:31:33.643Z,80.10
2018-03-03T15:34:05.763Z,80.30
2018-03-03T15:36:37.664Z,80.50
2018-03-03T15:39:09.619Z,80.50
2018-03-03T15:41:41.587Z,80.80
2018-03-03T15:44:13.478Z,80.90
2018-03-03T15:46:45.412Z,81.00
2018-03-03T15:49:17.296Z,81.60
2018-03-03T15:51:50.780Z,81.50
2018-03-03T15:54:22.733Z,81.40
2018-03-03T15:56:54.951Z,81.50
2018-03-03T15:59:26.822Z,81.70
2018-03-03T16:01:59.079Z,81.90
2018-03-03T16:04:30.959Z,82.10
2018-03-03T16:07:02.853Z,81.90
2018-03-03T16:09:34.719Z,82.10
2018-03-03T16:12:06.612Z,82.20
2018-03-03T16:14:39.322Z,82.40
2018-03-03T16:17:11.344Z,82.40
2018-03-03T16:19:43.174Z,82.30
2018-03-03T16:22:15.848Z,82.90
2018-03-03T16:24:47.719Z,82.30
2018-03-03T16:27:19.929Z,82.10
2018-03-03T16:29:51.835Z,82.70
2018-03-03T16:32:23.724Z,82.70
2018-03-03T16:34:55.657Z,82.60
2018-03-03T16:37:27.780Z,82.20
2018-03-03T16:39:59.675Z,82.50
2018-03-03T16:42:31.568Z,83.00
2018-03-03T16:45:03.797Z,82.80
2018-03-03T16:47:35.779Z,82.90
2018-03-03T16:50:07.732Z,82.70
2018-03-03T16:52:39.624Z,83.20
2018-03-03T16:55:12.380Z,83.20
2018-03-03T16:57:44.263Z,83.70
2018-03-03T17:00:16.130Z,84.00
2018-03-03T17:02:48.778Z,84.50
2018-03-03T17:05:20.654Z,84.50
2018-03-03T17:07:52.531Z,84.60
2018-03-03T17:10:25.163Z,85.30
2018-03-03T17:12:57.067Z,85.30
2018-03-03T17:15:29.711Z,85.10
2018-03-03T17:18:01.612Z,85.00
2018-03-03T17:20:34.248Z,85.30
2018-03-03T17:23:06.131Z,85.20
2018-03-03T17:25:38.224Z,85.70
2018-03-03T17:28:10.123Z,85.40
2018-03-03T17:30:42.087Z,85.70
2018-03-03T17:33:13.979Z,85.90
2018-03-03T17:35:45.916Z,85.80
2018-03-03T17:38:17.795Z,86.00
2018-03-03T17:40:49.729Z,85.90
2018-03-03T17:43:21.611Z,86.30
2018-03-03T17:45:53.495Z,86.40
2018-03-03T17:48:26.152Z,86.70
2018-03-03T17:50:58.023Z,86.70
2018-03-03T17:53:30.671Z,87.20
2018-03-03T17:56:02.554Z,87.00
2018-03-03T17:58:34.753Z,87.00
2018-03-03T18:01:06.656Z,87.20
2018-03-03T18:03:38.543Z,87.30
2018-03-03T18:06:10.498Z,87.30
2018-03-03T18:08:42.343Z,88.20
2018-03-03T18:11:14.214Z,87.80
2018-03-03T18:13:54.559Z,87.70
2018-03-03T18:16:26.675Z,87.70
2018-03-03T18:19:00.423Z,87.80
2018-03-03T18:21:32.287Z,87.90
2018-03-03T18:24:16.266Z,88.10
2018-03-03T18:26:48.903Z,88.40
2018-03-03T18:29:20.791Z,88.30
2018-03-03T18:31:52.665Z,88.20
2018-03-03T18:34:25.325Z,88.30
2018-03-03T18:36:57.195Z,88.30
2018-03-03T18:39:29.846Z,88.20
2018-03-03T18:42:01.755Z,88.20
2018-03-03T18:44:33.639Z,88.30
2018-03-03T18:47:05.519Z,88.30
2018-03-03T18:49:37.446Z,88.40
2018-03-03T18:52:09.610Z,88.40
2018-03-03T18:54:41.504Z,88.50
2018-03-03T18:57:13.475Z,88.40
2018-03-03T18:59:45.449Z,88.40
2018-03-03T19:02:17.387Z,88.40
2018-03-03T19:04:49.268Z,88.50
2018-03-03T19:07:21.228Z,88.40
2018-03-03T19:09:53.440Z,88.30
2018-03-03T19:12:25.353Z,88.20
2018-03-03T19:14:57.243Z,88.40
2018-03-03T19:17:29.996Z,88.40
2018-03-03T19:20:02.223Z,88.30
2018-03-03T19:22:34.115Z,88.40
2018-03-03T19:25:06.235Z,88.40
2018-03-03T19:27:38.108Z,88.30
2018-03-03T19:30:10.095Z,88.40
2018-03-03T19:32:41.972Z,88.40
2018-03-03T19:35:13.858Z,88.20
2018-03-03T19:37:46.591Z,88.00
2018-03-03T19:40:18.479Z,88.00
2018-03-03T19:42:50.417Z,87.80
2018-03-03T19:45:22.379Z,87.90
2018-03-03T19:47:54.347Z,88.00
2018-03-03T19:50:26.310Z,87.70
2018-03-03T19:52:58.271Z,87.50
2018-03-03T19:55:30.155Z,87.60
2018-03-03T19:58:02.035Z,87.50
2018-03-03T20:00:34.683Z,87.40
2018-03-03T20:03:06.560Z,87.30
2018-03-03T20:05:39.206Z,86.80
2018-03-03T20:08:11.075Z,87.20
2018-03-03T20:10:43.292Z,87.10
2018-03-03T20:13:15.183Z,86.90
2018-03-03T20:15:47.079Z,87.00
2018-03-03T20:18:18.948Z,87.10
2018-03-03T20:20:51.595Z,87.40
2018-03-03T20:23:24.234Z,87.40
2018-03-03T20:25:56.123Z,87.40
2018-03-03T20:28:28.001Z,87.20
2018-03-03T20:31:00.212Z,87.20
2018-03-03T20:33:32.091Z,87.20
2018-03-03T20:36:03.979Z,87.20
2018-03-03T20:38:35.868Z,87.00
2018-03-03T20:41:08.519Z,87.50
2018-03-03T20:43:40.390Z,87.40
2018-03-03T20:46:12.275Z,87.60
2018-03-03T20:48:44.928Z,87.60
2018-03-03T20:51:16.858Z,87.60
2018-03-03T20:53:48.736Z,87.60
2018-03-03T20:56:20.621Z,87.60
2018-03-03T20:58:52.814Z,87.40
2018-03-03T21:01:24.704Z,87.60
2018-03-03T21:03:56.582Z,87.70
2018-03-03T21:06:28.709Z,87.70
2018-03-03T21:09:00.867Z,87.60
2018-03-03T21:11:33.030Z,87.70
2018-03-03T21:14:04.935Z,87.80
2018-03-03T21:16:36.820Z,87.60
2018-03-03T21:19:08.696Z,87.70
2018-03-03T21:21:41.368Z,87.70
2018-03-03T21:24:13.243Z,87.60
2018-03-03T21:26:45.895Z,87.90
2018-03-03T21:29:17.809Z,87.90
2018-03-03T21:31:49.717Z,88.10
2018-03-03T21:34:21.587Z,88.20
2018-03-03T21:36:54.500Z,88.60
2018-03-03T21:39:26.371Z,88.60
2018-03-03T21:41:58.519Z,88.30
2018-03-03T21:44:30.424Z,88.00
2018-03-03T21:47:02.320Z,87.80
2018-03-03T21:49:34.987Z,88.00
2018-03-03T21:52:06.871Z,87.80
2018-03-03T21:54:39.527Z,87.70
2018-03-03T21:57:11.419Z,87.60
2018-03-03T21:59:43.301Z,87.70
2018-03-03T22:02:15.183Z,87.60
2018-03-03T22:04:47.051Z,87.70
2018-03-03T22:07:18.948Z,87.70
2018-03-03T22:09:51.840Z,87.70
2018-03-03T22:12:23.739Z,87.70
2018-03-03T22:14:55.615Z,87.70
2018-03-03T22:17:27.504Z,87.50
2018-03-03T22:20:00.143Z,87.50
2018-03-03T22:22:32.031Z,87.40
2018-03-03T22:25:03.909Z,87.50
2018-03-03T22:27:36.576Z,87.50
2018-03-03T22:30:09.216Z,87.40
2018-03-03T22:32:41.099Z,87.40
2018-03-03T22:35:12.976Z,87.60
2018-03-03T22:37:45.885Z,87.30
2018-03-03T22:40:17.764Z,87.20
2018-03-03T22:42:49.659Z,87.50
2018-03-03T22:45:21.526Z,87.30
2018-03-03T22:47:53.407Z,87.40
2018-03-03T22:50:26.051Z,87.50
2018-03-03T22:52:57.936Z,87.50
2018-03-03T22:55:30.843Z,87.50
2018-03-03T22:58:02.728Z,87.50
2018-03-03T23:00:34.867Z,87.40
2018-03-03T23:03:06.750Z,87.30
2018-03-03T23:05:38.891Z,87.40
2018-03-03T23:08:11.059Z,87.60
2018-03-03T23:10:42.938Z,87.50
2018-03-03T23:13:14.826Z,87.20
2018-03-03T23:15:46.704Z,87.10
2018-03-03T23:18:18.595Z,87.20
2018-03-03T23:20:50.468Z,87.10
2018-03-03T23:23:22.354Z,87.00
2018-03-03T23:25:54.236Z,87.10
2018-03-03T23:28:26.119Z,87.00
2018-03-03T23:30:59.028Z,87.00
2018-03-03T23:33:30.910Z,87.00
2018-03-03T23:36:02.787Z,86.80
2018-03-03T23:38:34.704Z,86.60
2018-03-03T23:41:06.596Z,86.70
2018-03-03T23:43:38.483Z,86.60
2018-03-03T23:46:10.363Z,86.50
2018-03-03T23:48:43.015Z,86.60
2018-03-03T23:51:14.883Z,86.50
2018-03-03T23:53:46.766Z,86.80
2018-03-03T23:56:19.403Z,87.20
2018-03-03T23:58:51.288Z,87.20
